Time;durP1;ratioP1;P1;durP2;ratioP2;P2;SDS_P1;SDS_P2;PMS_P1;PMS_P2;Temp;Humidity;BMP_temperature;BMP_pressure;BME280_temperature;BME280_humidity;BME280_pressure;Samples;Min_cycle;Max_cycle;Signal;HPM_P1;HPM_P2
2023/09/26 00:01:31;;;;;;;7.57;6.88;;;15.30;99.90;;;;;;4989807;28;20042;-80
2023/09/26 00:03:56;;;;;;;8.50;6.63;;;15.70;99.90;;;;;;4986270;28;20076;-80
2023/09/26 00:06:23;;;;;;;8.55;6.70;;;15.40;99.90;;;;;;4988798;28;20069;-80
2023/09/26 00:08:51;;;;;;;8.00;6.65;;;15.40;99.90;;;;;;4988010;28;20082;-79
2023/09/26 00:11:18;;;;;;;8.23;6.85;;;15.30;99.90;;;;;;4987650;28;20058;-79
2023/09/26 00:13:43;;;;;;;7.68;6.88;;;15.70;99.90;;;;;;4988138;28;20050;-80
2023/09/26 00:16:10;;;;;;;8.07;7.28;;;15.40;99.90;;;;;;4987893;28;20052;-79
2023/09/26 00:18:35;;;;;;;8.98;7.07;;;15.40;99.90;;;;;;4987150;28;20103;-79
2023/09/26 00:21:01;;;;;;;7.65;6.93;;;15.40;99.90;;;;;;4988258;28;20057;-80
2023/09/26 00:23:27;;;;;;;7.75;6.68;;;15.40;99.90;;;;;;4987309;28;20043;-80
2023/09/26 00:25:52;;;;;;;7.45;6.38;;;15.30;99.90;;;;;;4986813;28;20092;-80
2023/09/26 00:28:18;;;;;;;6.60;6.00;;;15.30;99.90;;;;;;4988077;28;20065;-80
2023/09/26 00:30:43;;;;;;;8.02;6.60;;;15.30;99.90;;;;;;4987769;28;20035;-80
2023/09/26 00:33:09;;;;;;;6.53;5.93;;;15.30;99.90;;;;;;4969658;28;20170;-80
2023/09/26 00:35:35;;;;;;;9.18;6.60;;;15.30;99.90;;;;;;4987307;28;20414;-80
2023/09/26 00:38:01;;;;;;;7.47;6.55;;;15.40;99.90;;;;;;4988279;28;20049;-80
2023/09/26 00:40:26;;;;;;;7.43;6.72;;;15.30;99.90;;;;;;4987711;28;20104;-80
2023/09/26 00:42:52;;;;;;;7.07;6.40;;;15.30;99.90;;;;;;4969189;28;20474;-80
2023/09/26 00:45:18;;;;;;;6.88;6.18;;;15.30;99.90;;;;;;4986781;28;20034;-80
2023/09/26 00:47:44;;;;;;;7.32;6.45;;;15.30;99.90;;;;;;4970117;28;20050;-80
2023/09/26 00:50:12;;;;;;;7.35;6.65;;;15.30;99.90;;;;;;4988143;28;20042;-80
2023/09/26 00:52:43;;;;;;;7.93;6.60;;;15.30;99.90;;;;;;4970041;28;20185;-81
2023/09/26 00:55:10;;;;;;;7.43;6.37;;;15.30;99.90;;;;;;4986056;28;20050;-80
2023/09/26 00:57:38;;;;;;;7.30;6.47;;;15.30;99.90;;;;;;4987777;28;20304;-80
2023/09/26 01:00:04;;;;;;;6.97;6.38;;;15.20;99.90;;;;;;4986580;28;20054;-80
2023/09/26 01:02:30;;;;;;;7.40;6.63;;;15.20;99.90;;;;;;4988266;28;20054;-80
2023/09/26 01:04:56;;;;;;;8.43;6.80;;;15.50;99.90;;;;;;4986439;28;20042;-80
2023/09/26 01:07:22;;;;;;;7.13;6.43;;;15.20;99.90;;;;;;4968744;28;20051;-80
2023/09/26 01:09:48;;;;;;;6.63;5.97;;;15.10;99.90;;;;;;4969049;28;20453;-80
2023/09/26 01:12:16;;;;;;;7.38;6.70;;;15.10;99.90;;;;;;4986514;28;20755;-80
2023/09/26 01:14:41;;;;;;;8.38;7.30;;;15.10;99.90;;;;;;4987121;28;20072;-80
2023/09/26 01:17:07;;;;;;;9.15;6.95;;;15.10;99.90;;;;;;4968813;28;20066;-80
2023/09/26 01:19:33;;;;;;;8.45;7.30;;;15.10;99.90;;;;;;4985928;28;20081;-80
2023/09/26 01:21:59;;;;;;;7.93;7.13;;;15.00;99.90;;;;;;4987213;28;20046;-80
2023/09/26 01:24:24;;;;;;;9.13;7.22;;;15.00;99.90;;;;;;4987385;28;20048;-80
2023/09/26 01:26:50;;;;;;;8.18;7.38;;;15.00;99.90;;;;;;4986328;28;20130;-80
2023/09/26 01:29:15;;;;;;;8.05;7.32;;;15.00;99.90;;;;;;4986618;28;20047;-80
2023/09/26 01:31:42;;;;;;;8.70;7.47;;;14.90;99.90;;;;;;4969917;28;20046;-80
2023/09/26 01:34:08;;;;;;;8.35;6.82;;;14.90;99.90;;;;;;4987168;28;20049;-80
2023/09/26 01:36:33;;;;;;;9.30;7.47;;;14.90;99.90;;;;;;4987613;28;20042;-80
2023/09/26 01:38:59;;;;;;;9.05;8.15;;;14.80;99.90;;;;;;4986852;28;20034;-80
2023/09/26 01:41:26;;;;;;;8.60;7.80;;;14.80;99.90;;;;;;4986584;28;20069;-81
2023/09/26 01:43:52;;;;;;;9.38;8.18;;;14.80;99.90;;;;;;4986523;28;20347;-80
2023/09/26 01:46:19;;;;;;;8.13;7.32;;;14.70;99.90;;;;;;4987439;28;20058;-80
2023/09/26 01:48:46;;;;;;;10.50;7.95;;;14.60;99.90;;;;;;4986169;28;20125;-80
2023/09/26 01:51:12;;;;;;;9.55;7.97;;;14.60;99.90;;;;;;4987318;28;20054;-80
2023/09/26 01:53:38;;;;;;;7.90;7.10;;;14.50;99.90;;;;;;4987283;28;20120;-80
2023/09/26 01:56:04;;;;;;;9.60;8.05;;;14.50;99.90;;;;;;4989931;28;20058;-80
2023/09/26 01:58:29;;;;;;;8.40;7.35;;;14.40;99.90;;;;;;4988528;28;20117;-80
2023/09/26 02:00:55;;;;;;;9.95;8.48;;;14.40;99.90;;;;;;4973499;28;20075;-80
2023/09/26 02:03:21;;;;;;;12.30;9.38;;;14.30;99.90;;;;;;4990048;28;20082;-81
2023/09/26 02:05:47;;;;;;;8.75;7.95;;;14.30;99.90;;;;;;4971226;28;20409;-80
2023/09/26 02:08:15;;;;;;;8.50;7.57;;;14.20;99.90;;;;;;4990286;28;20034;-80
2023/09/26 02:10:41;;;;;;;9.32;8.45;;;14.20;99.90;;;;;;4989593;28;20117;-80
2023/09/26 02:13:06;;;;;;;10.60;9.60;;;14.10;99.90;;;;;;4989072;28;20149;-80
2023/09/26 02:15:32;;;;;;;13.38;9.40;;;14.10;99.90;;;;;;4990213;28;20443;-80
2023/09/26 02:17:58;;;;;;;9.85;8.93;;;14.00;99.90;;;;;;4989449;28;20058;-80
2023/09/26 02:20:25;;;;;;;10.13;9.13;;;14.00;99.90;;;;;;4989825;28;20085;-80
2023/09/26 02:22:52;;;;;;;10.18;9.07;;;14.10;99.90;;;;;;4990282;28;20117;-78
2023/09/26 02:25:19;;;;;;;9.48;8.57;;;14.10;99.90;;;;;;4989387;28;20046;-78
2023/09/26 02:27:45;;;;;;;9.88;8.82;;;14.10;99.90;;;;;;4989845;28;20699;-78
2023/09/26 02:30:13;;;;;;;11.35;10.25;;;14.10;99.90;;;;;;4971015;28;20039;-80
2023/09/26 02:32:39;;;;;;;11.57;10.48;;;14.10;99.90;;;;;;4989260;28;20100;-79
2023/09/26 02:35:08;;;;;;;11.90;10.73;;;14.10;99.90;;;;;;4988905;28;20082;-79
2023/09/26 02:37:34;;;;;;;11.77;10.68;;;14.10;99.90;;;;;;4971433;28;20081;-79
2023/09/26 02:40:00;;;;;;;12.65;11.35;;;14.10;99.90;;;;;;4989578;28;20090;-79
2023/09/26 02:42:26;;;;;;;12.20;10.93;;;14.10;99.90;;;;;;4988748;28;20043;-80
2023/09/26 02:44:52;;;;;;;12.10;11.00;;;14.10;99.90;;;;;;4989307;28;20034;-80
2023/09/26 02:47:18;;;;;;;12.63;11.30;;;14.10;99.90;;;;;;4990225;28;20125;-80
2023/09/26 02:49:43;;;;;;;12.07;10.88;;;14.10;99.90;;;;;;4971157;28;20117;-80
2023/09/26 02:52:09;;;;;;;12.55;11.35;;;14.10;99.90;;;;;;4971738;28;20627;-80
2023/09/26 02:54:34;;;;;;;13.70;12.43;;;14.00;99.90;;;;;;4971630;28;20042;-79
2023/09/26 02:57:01;;;;;;;12.02;10.73;;;14.40;99.90;;;;;;4954501;28;20452;-80
2023/09/26 02:59:28;;;;;;;11.80;10.65;;;14.00;99.90;;;;;;4955322;28;20121;-79
2023/09/26 03:01:54;;;;;;;13.27;11.98;;;13.90;99.90;;;;;;4955532;28;20038;-80
2023/09/26 03:04:20;;;;;;;12.70;11.52;;;13.80;99.90;;;;;;4989036;28;20046;-80
2023/09/26 03:06:45;;;;;;;13.43;12.02;;;13.80;99.90;;;;;;4988936;28;20049;-80
2023/09/26 03:09:11;;;;;;;12.98;11.68;;;13.70;99.90;;;;;;4988371;28;20047;-79
2023/09/26 03:11:36;;;;;;;13.25;11.43;;;13.60;99.90;;;;;;4972006;28;20120;-80
2023/09/26 03:14:02;;;;;;;14.90;12.32;;;13.60;99.90;;;;;;4988888;28;20053;-80
2023/09/26 03:16:28;;;;;;;12.75;11.43;;;13.50;99.90;;;;;;4970581;28;20476;-80
2023/09/26 03:18:54;;;;;;;12.82;11.52;;;13.50;99.90;;;;;;4989277;28;20824;-80
2023/09/26 03:21:20;;;;;;;13.98;12.32;;;13.40;99.90;;;;;;4971116;28;20573;-79
2023/09/26 03:23:46;;;;;;;14.07;12.77;;;13.40;99.90;;;;;;4988855;28;20046;-81
2023/09/26 03:26:15;;;;;;;14.02;12.70;;;13.30;99.90;;;;;;4988298;28;20387;-80
2023/09/26 03:28:40;;;;;;;14.40;12.90;;;13.30;99.90;;;;;;4989549;28;20471;-80
2023/09/26 03:31:09;;;;;;;13.88;12.35;;;13.20;99.90;;;;;;4988105;28;20043;-80
2023/09/26 03:33:35;;;;;;;14.45;13.05;;;13.20;99.90;;;;;;4988263;28;20057;-80
2023/09/26 03:36:03;;;;;;;14.30;12.95;;;13.20;99.90;;;;;;4988614;28;20088;-80
2023/09/26 03:38:29;;;;;;;14.98;13.38;;;13.10;99.90;;;;;;4987867;28;20039;-80
2023/09/26 03:40:59;;;;;;;14.77;13.23;;;13.10;99.90;;;;;;4970272;28;20711;-80
2023/09/26 03:43:26;;;;;;;13.98;12.57;;;13.00;99.90;;;;;;4988076;28;20054;-79
2023/09/26 03:45:54;;;;;;;15.52;13.85;;;13.00;99.90;;;;;;4988382;28;20038;-79
2023/09/26 03:48:19;;;;;;;16.00;14.50;;;12.90;99.90;;;;;;4988502;28;20493;-80
2023/09/26 03:50:46;;;;;;;14.07;12.77;;;12.90;99.90;;;;;;4987569;28;20045;-80
2023/09/26 03:53:13;;;;;;;13.90;12.52;;;12.80;99.90;;;;;;4988648;28;20046;-79
2023/09/26 03:55:39;;;;;;;14.50;13.10;;;12.80;99.90;;;;;;4970400;28;20051;-79
2023/09/26 03:58:06;;;;;;;16.85;13.05;;;12.70;99.90;;;;;;4971006;28;20057;-79
2023/09/26 04:00:32;;;;;;;15.50;13.98;;;12.70;99.90;;;;;;4987365;28;20046;-79
2023/09/26 04:02:57;;;;;;;15.88;14.25;;;12.60;99.90;;;;;;4987473;28;20409;-80
2023/09/26 04:05:23;;;;;;;16.80;14.70;;;12.60;99.90;;;;;;4988439;28;20061;-79
2023/09/26 04:07:48;;;;;;;14.88;13.40;;;12.60;99.90;;;;;;4970505;28;20096;-78
2023/09/26 04:10:14;;;;;;;16.35;14.65;;;12.60;99.90;;;;;;4985849;28;20089;-78
2023/09/26 04:12:40;;;;;;;15.95;14.35;;;12.50;99.90;;;;;;4988121;28;20053;-79
2023/09/26 04:15:06;;;;;;;16.38;14.68;;;12.50;99.90;;;;;;4988716;28;20049;-80
2023/09/26 04:17:32;;;;;;;15.27;13.88;;;12.40;99.90;;;;;;4969336;28;20342;-80
2023/09/26 04:19:57;;;;;;;16.10;14.13;;;12.40;99.90;;;;;;4987075;28;20053;-80
2023/09/26 04:22:23;;;;;;;14.75;13.45;;;12.70;99.90;;;;;;4988142;28;20136;-79
2023/09/26 04:24:49;;;;;;;17.80;14.15;;;12.30;99.90;;;;;;4987234;28;20050;-80
2023/09/26 04:27:15;;;;;;;15.48;14.05;;;12.30;99.90;;;;;;4987764;28;20057;-79
2023/09/26 04:29:40;;;;;;;16.98;13.88;;;12.20;99.90;;;;;;4988066;28;20403;-80
2023/09/26 04:32:07;;;;;;;15.30;13.80;;;12.20;99.90;;;;;;4954261;28;20048;-80
2023/09/26 04:34:32;;;;;;;15.75;14.23;;;12.20;99.90;;;;;;4987560;28;20524;-79
2023/09/26 04:36:58;;;;;;;15.10;13.70;;;12.20;99.90;;;;;;4988331;28;20047;-80
2023/09/26 04:39:24;;;;;;;14.38;12.88;;;12.20;99.90;;;;;;4986988;28;20053;-80
2023/09/26 04:41:51;;;;;;;15.43;13.82;;;12.10;99.90;;;;;;4987738;28;20815;-79
2023/09/26 04:44:18;;;;;;;16.08;14.38;;;12.10;99.90;;;;;;4986731;28;20086;-79
2023/09/26 04:46:44;;;;;;;16.13;14.52;;;12.10;99.90;;;;;;4987752;28;20646;-80
2023/09/26 04:49:09;;;;;;;15.60;14.10;;;12.10;99.90;;;;;;4970866;28;20066;-80
2023/09/26 04:51:35;;;;;;;14.25;12.95;;;12.10;99.90;;;;;;4986852;28;20046;-79
2023/09/26 04:54:02;;;;;;;15.57;13.98;;;12.10;99.90;;;;;;4987188;28;20050;-79
2023/09/26 04:56:28;;;;;;;14.27;12.75;;;12.10;99.90;;;;;;4969540;28;20054;-80
2023/09/26 04:58:53;;;;;;;14.65;13.25;;;12.10;99.90;;;;;;4969849;28;20040;-79
2023/09/26 05:01:19;;;;;;;13.30;12.07;;;12.10;99.90;;;;;;4969651;28;20187;-80
2023/09/26 05:03:44;;;;;;;15.70;14.07;;;12.00;99.90;;;;;;4986981;28;20139;-80
2023/09/26 05:06:11;;;;;;;16.20;14.60;;;12.00;99.90;;;;;;4986689;28;20046;-80
2023/09/26 05:08:37;;;;;;;16.85;15.15;;;12.00;99.90;;;;;;4970393;28;20042;-79
2023/09/26 05:11:03;;;;;;;16.02;14.50;;;12.00;99.90;;;;;;5000767;28;20057;-80
2023/09/26 05:13:29;;;;;;;15.40;13.95;;;11.90;99.90;;;;;;4970249;28;20058;-79
2023/09/26 05:15:55;;;;;;;15.75;14.15;;;11.90;99.90;;;;;;4996077;28;20050;-80
2023/09/26 05:18:22;;;;;;;14.32;12.93;;;11.90;99.90;;;;;;4996427;28;20054;-79
2023/09/26 05:20:48;;;;;;;14.10;12.60;;;12.20;99.90;;;;;;4984923;28;20035;-80
2023/09/26 05:23:13;;;;;;;14.98;13.48;;;12.50;99.90;;;;;;4968886;28;20065;-77
2023/09/26 05:25:39;;;;;;;17.48;14.40;;;11.90;99.90;;;;;;4987379;28;20092;-80
2023/09/26 05:28:05;;;;;;;15.77;14.15;;;11.90;99.90;;;;;;4986095;28;20053;-79
2023/09/26 05:30:31;;;;;;;14.77;13.30;;;11.90;99.90;;;;;;4989901;28;20042;-80
2023/09/26 05:32:56;;;;;;;16.23;14.65;;;11.90;99.90;;;;;;4990194;28;20549;-79
2023/09/26 05:35:22;;;;;;;20.10;15.02;;;11.90;99.90;;;;;;4987716;28;20045;-78
2023/09/26 05:37:48;;;;;;;17.27;15.48;;;11.90;99.90;;;;;;4989380;28;20054;-79
2023/09/26 05:40:13;;;;;;;14.88;13.38;;;11.90;99.90;;;;;;4991063;28;20042;-78
2023/09/26 05:42:43;;;;;;;16.13;14.40;;;11.90;99.90;;;;;;4991029;28;20039;-78
2023/09/26 05:45:09;;;;;;;16.90;15.02;;;11.90;99.90;;;;;;4990750;28;20412;-78
2023/09/26 05:47:35;;;;;;;16.38;14.38;;;11.90;99.90;;;;;;4991173;28;20069;-78
2023/09/26 05:50:03;;;;;;;15.95;13.85;;;12.00;99.90;;;;;;4973513;28;20451;-78
2023/09/26 05:52:28;;;;;;;16.23;14.38;;;12.00;99.90;;;;;;4972735;28;20803;-78
2023/09/26 05:54:54;;;;;;;18.35;15.35;;;12.00;99.90;;;;;;4991148;28;20069;-79
2023/09/26 05:57:20;;;;;;;15.18;13.63;;;12.00;99.90;;;;;;4991288;28;20483;-79
2023/09/26 05:59:45;;;;;;;14.73;13.30;;;12.00;99.90;;;;;;4973375;28;20103;-79
2023/09/26 06:02:16;;;;;;;15.23;13.63;;;12.10;99.90;;;;;;4991060;28;20050;-79
2023/09/26 06:04:43;;;;;;;13.90;12.60;;;12.10;99.90;;;;;;4972234;28;20417;-80
2023/09/26 06:07:09;;;;;;;14.50;13.05;;;12.50;99.90;;;;;;4990425;28;20038;-79
2023/09/26 06:09:36;;;;;;;14.30;12.90;;;12.30;99.90;;;;;;4989901;28;20104;-79
2023/09/26 06:12:03;;;;;;;15.20;13.68;;;12.30;99.90;;;;;;4990795;28;20497;-82
2023/09/26 06:14:29;;;;;;;14.10;12.75;;;12.40;99.90;;;;;;4990801;28;20050;-81
2023/09/26 06:16:55;;;;;;;13.35;12.05;;;12.40;99.90;;;;;;4968948;28;20062;-82
2023/09/26 06:19:21;;;;;;;13.65;12.27;;;12.50;99.90;;;;;;4970244;28;20058;-82
2023/09/26 06:21:46;;;;;;;17.17;12.98;;;12.50;99.90;;;;;;4970590;28;20076;-80
2023/09/26 06:24:12;;;;;;;14.75;12.52;;;12.50;99.90;;;;;;4968687;28;20414;-81
2023/09/26 06:26:37;;;;;;;13.75;12.35;;;12.60;99.90;;;;;;4969294;28;20042;-81
2023/09/26 06:29:03;;;;;;;14.60;12.82;;;12.70;99.90;;;;;;4971059;28;20047;-80
2023/09/26 06:31:28;;;;;;;14.48;13.13;;;13.00;99.90;;;;;;4970579;28;20126;-81
2023/09/26 06:33:56;;;;;;;13.45;12.02;;;12.70;99.90;;;;;;4971008;28;20093;-80
2023/09/26 06:36:21;;;;;;;13.32;12.00;;;12.80;99.90;;;;;;4969421;28;20051;-80
2023/09/26 06:38:47;;;;;;;12.57;11.15;;;12.80;99.90;;;;;;4970042;28;20043;-80
2023/09/26 06:41:13;;;;;;;15.02;12.45;;;12.90;99.90;;;;;;4969188;28;20047;-80
2023/09/26 06:43:39;;;;;;;12.75;11.43;;;12.90;99.90;;;;;;4969764;28;20094;-80
2023/09/26 06:46:08;;;;;;;13.70;11.57;;;13.00;99.90;;;;;;4969222;28;20406;-81
2023/09/26 06:48:37;;;;;;;12.95;11.40;;;13.00;99.90;;;;;;4970382;28;20089;-80
2023/09/26 06:51:02;;;;;;;12.18;10.98;;;13.10;99.90;;;;;;4970068;28;20081;-81
2023/09/26 06:53:29;;;;;;;13.23;11.48;;;13.10;99.90;;;;;;4970107;28;20081;-81
2023/09/26 06:56:06;;;;;;;12.20;11.00;;;13.10;99.90;;;;;;4970078;28;20061;-80
2023/09/26 06:58:33;;;;;;;13.73;11.88;;;13.20;99.90;;;;;;4953395;28;20134;-81
2023/09/26 07:00:58;;;;;;;12.20;10.85;;;13.30;99.90;;;;;;4970051;28;20074;-80
2023/09/26 07:03:27;;;;;;;11.85;10.65;;;13.30;99.90;;;;;;4970188;28;20050;-80
2023/09/26 07:05:56;;;;;;;12.57;11.02;;;13.40;99.90;;;;;;4970390;28;20426;-80
2023/09/26 07:08:22;;;;;;;12.38;11.25;;;13.50;99.90;;;;;;4968898;28;20134;-80
2023/09/26 07:10:48;;;;;;;12.68;11.30;;;13.60;99.90;;;;;;4969487;28;20256;-81
2023/09/26 07:13:13;;;;;;;12.50;11.40;;;13.70;99.90;;;;;;4969009;28;20101;-82
2023/09/26 07:15:42;;;;;;;11.80;10.48;;;13.80;99.90;;;;;;4968652;28;20113;-82
2023/09/26 07:18:10;;;;;;;11.88;10.48;;;13.90;99.90;;;;;;4952316;28;20320;-81
2023/09/26 07:20:46;;;;;;;11.85;9.93;;;14.00;99.90;;;;;;4969094;28;20415;-81
2023/09/26 07:23:12;;;;;;;12.40;10.98;;;14.30;99.90;;;;;;4969837;28;20409;-81
2023/09/26 07:25:38;;;;;;;11.85;10.55;;;14.10;99.90;;;;;;4969238;28;20109;-82
2023/09/26 07:28:04;;;;;;;11.98;9.73;;;14.20;99.90;;;;;;4969888;28;20081;-80
2023/09/26 07:30:30;;;;;;;11.43;9.48;;;14.30;99.90;;;;;;4969477;28;20125;-80
2023/09/26 07:32:55;;;;;;;10.98;10.05;;;14.40;99.90;;;;;;4968088;28;20748;-81
2023/09/26 07:35:21;;;;;;;11.48;10.27;;;14.50;99.90;;;;;;4967780;28;20035;-81
2023/09/26 07:37:46;;;;;;;11.63;10.52;;;14.60;99.90;;;;;;4969669;28;20039;-82
2023/09/26 07:40:12;;;;;;;12.05;10.05;;;14.70;99.90;;;;;;4969597;28;20049;-82
2023/09/26 07:42:39;;;;;;;11.27;10.18;;;14.70;99.90;;;;;;4969639;28;20070;-81
2023/09/26 07:45:05;;;;;;;11.55;9.43;;;14.80;99.90;;;;;;4968315;28;20054;-81
2023/09/26 07:47:31;;;;;;;11.07;10.02;;;14.90;99.90;;;;;;4968217;28;20515;-81
2023/09/26 07:49:56;;;;;;;13.02;9.48;;;14.90;99.90;;;;;;4967809;28;20106;-81
2023/09/26 07:52:26;;;;;;;10.52;9.52;;;15.00;99.90;;;;;;4967369;28;20042;-81
2023/09/26 07:54:51;;;;;;;10.48;9.10;;;15.10;99.90;;;;;;4967451;28;20076;-81
2023/09/26 07:57:17;;;;;;;10.50;9.40;;;15.20;99.90;;;;;;4967050;28;20133;-82
2023/09/26 07:59:43;;;;;;;10.65;9.48;;;15.20;99.90;;;;;;4968646;28;20050;-83
2023/09/26 08:02:08;;;;;;;10.32;9.20;;;15.40;99.90;;;;;;4968802;28;20109;-81
2023/09/26 08:04:34;;;;;;;10.57;9.10;;;15.50;99.90;;;;;;4968552;28;20463;-81
2023/09/26 08:07:00;;;;;;;12.00;9.52;;;15.40;99.90;;;;;;4967297;28;20035;-82
2023/09/26 08:09:25;;;;;;;11.43;8.77;;;15.70;99.90;;;;;;4983121;28;20511;-80
2023/09/26 08:11:51;;;;;;;10.43;9.07;;;15.70;99.90;;;;;;4968893;28;20038;-80
2023/09/26 08:14:17;;;;;;;11.57;8.95;;;15.80;99.90;;;;;;4953562;28;20055;-80
2023/09/26 08:16:43;;;;;;;9.63;8.68;;;15.90;99.90;;;;;;4950772;28;20114;-81
2023/09/26 08:19:08;;;;;;;9.13;8.32;;;16.00;99.90;;;;;;4968846;28;20055;-82
2023/09/26 08:21:34;;;;;;;9.40;8.50;;;16.70;99.90;;;;;;4969186;28;20046;-81
2023/09/26 08:24:00;;;;;;;10.32;9.13;;;16.10;99.90;;;;;;4968743;28;20047;-81
2023/09/26 08:26:26;;;;;;;10.27;8.05;;;16.20;99.90;;;;;;4967185;28;20521;-81
2023/09/26 08:28:51;;;;;;;9.80;8.88;;;16.30;99.90;;;;;;4966577;28;20039;-81
2023/09/26 08:31:17;;;;;;;10.20;8.98;;;16.40;99.90;;;;;;4967546;28;20093;-81
2023/09/26 08:33:44;;;;;;;9.85;8.85;;;16.50;99.90;;;;;;4968409;28;20513;-81
2023/09/26 08:36:17;;;;;;;9.27;8.20;;;16.60;99.90;;;;;;4968737;28;20042;-81
2023/09/26 08:38:43;;;;;;;11.55;9.20;;;16.70;99.90;;;;;;4969892;28;20116;-81
2023/09/26 08:41:10;;;;;;;9.75;8.75;;;16.80;99.90;;;;;;4967576;28;20132;-81
2023/09/26 08:43:36;;;;;;;11.60;8.98;;;16.90;99.90;;;;;;4969032;28;20055;-81
2023/09/26 08:46:04;;;;;;;9.63;8.30;;;16.90;99.90;;;;;;4969158;28;20577;-83
2023/09/26 08:48:30;;;;;;;11.38;9.00;;;16.90;99.90;;;;;;4968467;28;20038;-81
2023/09/26 08:50:56;;;;;;;10.27;8.63;;;17.00;99.90;;;;;;4967322;28;20106;-81
2023/09/26 08:53:21;;;;;;;9.43;8.52;;;17.00;99.90;;;;;;4967520;28;20047;-80
2023/09/26 08:55:49;;;;;;;12.27;8.18;;;17.10;99.90;;;;;;4942708;28;20094;-80
2023/09/26 08:58:16;;;;;;;10.02;7.93;;;17.30;99.90;;;;;;4983375;28;20043;-80
2023/09/26 09:00:43;;;;;;;9.57;7.82;;;17.40;99.90;;;;;;4960095;28;20043;-78
2023/09/26 09:03:08;;;;;;;8.77;7.90;;;17.50;99.90;;;;;;4969199;28;20059;-80
2023/09/26 09:05:35;;;;;;;9.02;7.85;;;17.50;99.90;;;;;;4971895;28;20113;-79
2023/09/26 09:08:01;;;;;;;9.82;7.57;;;17.60;99.90;;;;;;4971222;28;20077;-81
2023/09/26 09:10:27;;;;;;;8.52;7.57;;;17.70;99.90;;;;;;4972214;28;20070;-81
2023/09/26 09:13:11;;;;;;;8.75;7.38;;;17.80;99.90;;;;;;4972329;28;20050;-81
2023/09/26 09:15:37;;;;;;;8.35;7.40;;;17.90;99.90;;;;;;4971577;28;20049;-81
2023/09/26 09:18:02;;;;;;;8.25;7.38;;;18.00;99.90;;;;;;4988886;28;20073;-81
2023/09/26 09:20:33;;;;;;;9.18;7.53;;;18.10;99.90;;;;;;4990379;28;21528;-81
2023/09/26 09:23:03;;;;;;;7.43;6.68;;;18.20;99.90;;;;;;4991598;28;20054;-81
2023/09/26 09:25:37;;;;;;;10.52;6.80;;;18.20;99.90;;;;;;4993304;28;20513;-81
2023/09/26 09:28:06;;;;;;;7.75;6.95;;;18.40;99.90;;;;;;4991502;28;20058;-83
2023/09/26 09:30:42;;;;;;;7.90;6.65;;;18.40;99.90;;;;;;4991356;28;20061;-80
2023/09/26 09:33:09;;;;;;;8.63;6.18;;;18.60;99.90;;;;;;4988524;28;20430;-80
2023/09/26 09:35:35;;;;;;;8.55;6.65;;;18.70;99.90;;;;;;4985525;28;20042;-80
2023/09/26 09:38:02;;;;;;;11.02;6.72;;;18.80;99.90;;;;;;4984696;28;20054;-80
2023/09/26 09:40:28;;;;;;;11.90;7.40;;;18.80;99.90;;;;;;4986192;28;20093;-81
2023/09/26 09:42:55;;;;;;;9.43;7.32;;;18.80;99.90;;;;;;4988915;28;20093;-79
2023/09/26 09:45:21;;;;;;;8.05;6.95;;;18.80;99.90;;;;;;4991272;28;20050;-79
2023/09/26 09:47:48;;;;;;;10.25;7.45;;;19.00;99.90;;;;;;4990915;28;20042;-80
2023/09/26 09:50:15;;;;;;;10.25;7.60;;;19.10;99.90;;;;;;4972885;28;20053;-79
2023/09/26 09:52:45;;;;;;;11.75;8.10;;;19.10;99.90;;;;;;4990654;28;20050;-78
2023/09/26 09:55:32;;;;;;;9.73;7.55;;;19.00;99.90;;;;;;4972970;28;20089;-80
2023/09/26 09:58:02;;;;;;;9.57;7.60;;;19.00;99.90;;;;;;4970413;28;20054;-80
2023/09/26 10:00:31;;;;;;;9.50;7.82;;;19.10;99.90;;;;;;4973706;28;20084;-80
2023/09/26 10:03:00;;;;;;;10.95;7.50;;;19.10;99.90;;;;;;4973411;28;20351;-80
2023/09/26 10:05:28;;;;;;;13.00;7.25;;;19.20;99.90;;;;;;4990474;28;20482;-80
2023/09/26 10:07:55;;;;;;;8.73;7.15;;;19.20;99.90;;;;;;4990452;28;20042;-80
2023/09/26 10:10:24;;;;;;;10.63;7.35;;;19.30;99.90;;;;;;4990482;28;20046;-80
2023/09/26 10:12:50;;;;;;;9.05;8.00;;;19.30;99.90;;;;;;4971728;28;20129;-80
2023/09/26 10:15:17;;;;;;;10.10;6.70;;;19.30;99.90;;;;;;4990254;28;20080;-80
2023/09/26 10:17:45;;;;;;;6.90;6.20;;;19.70;99.90;;;;;;4989689;28;20043;-79
2023/09/26 10:20:14;;;;;;;8.25;7.28;;;19.50;99.90;;;;;;4985193;28;20132;-80
2023/09/26 10:22:41;;;;;;;8.48;6.57;;;19.40;99.90;;;;;;4988728;28;20053;-79
2023/09/26 10:25:23;;;;;;;10.15;6.13;;;19.50;99.90;;;;;;4982577;28;20125;-80
2023/09/26 10:27:50;;;;;;;7.47;6.78;;;19.60;99.90;;;;;;4989661;28;20054;-80
2023/09/26 10:30:18;;;;;;;9.63;7.38;;;19.60;99.90;;;;;;4956153;28;20056;-80
2023/09/26 10:32:45;;;;;;;8.00;7.30;;;19.60;99.90;;;;;;4990450;28;20458;-79
2023/09/26 10:35:14;;;;;;;7.55;6.30;;;19.80;99.90;;;;;;4989585;28;20058;-78
2023/09/26 10:37:49;;;;;;;7.68;6.63;;;19.90;99.90;;;;;;4989888;28;20053;-78
2023/09/26 10:40:17;;;;;;;8.82;6.72;;;19.80;99.90;;;;;;4989577;28;20050;-80
2023/09/26 10:42:47;;;;;;;9.32;6.50;;;19.80;99.90;;;;;;4990359;28;20069;-78
2023/09/26 10:45:13;;;;;;;7.72;6.70;;;19.90;99.90;;;;;;4989964;28;20050;-78
2023/09/26 10:47:40;;;;;;;7.32;6.63;;;20.00;99.90;;;;;;4990126;28;20413;-78
2023/09/26 10:50:09;;;;;;;7.20;6.50;;;20.00;99.90;;;;;;4972948;28;20046;-77
2023/09/26 10:52:35;;;;;;;9.02;6.50;;;20.00;99.90;;;;;;4979231;28;20043;-77
2023/09/26 10:55:03;;;;;;;7.25;6.55;;;20.10;99.90;;;;;;4970505;28;20138;-77
2023/09/26 10:57:29;;;;;;;7.90;7.15;;;20.10;99.90;;;;;;4972664;28;20054;-78
2023/09/26 10:59:55;;;;;;;8.63;6.78;;;20.20;99.90;;;;;;4989690;28;20465;-77
2023/09/26 11:02:23;;;;;;;7.68;6.97;;;20.20;99.90;;;;;;4994342;28;20042;-78
2023/09/26 11:04:50;;;;;;;7.88;6.70;;;20.20;99.90;;;;;;4990454;28;20034;-78
2023/09/26 11:07:16;;;;;;;7.38;6.60;;;20.20;99.90;;;;;;4989657;28;20043;-77
2023/09/26 11:09:44;;;;;;;8.32;7.43;;;20.30;99.90;;;;;;4989548;28;20375;-80
2023/09/26 11:12:12;;;;;;;9.68;7.00;;;20.40;99.90;;;;;;4988096;28;20062;-79
2023/09/26 11:14:38;;;;;;;8.57;6.95;;;20.40;99.90;;;;;;4972496;28;20684;-80
2023/09/26 11:17:04;;;;;;;8.63;7.10;;;20.40;99.90;;;;;;4989697;28;20458;-80
2023/09/26 11:19:30;;;;;;;8.50;7.80;;;20.40;99.90;;;;;;4971738;28;20065;-80
2023/09/26 11:21:56;;;;;;;8.45;7.65;;;20.40;99.90;;;;;;4987796;28;20039;-81
2023/09/26 11:24:27;;;;;;;10.10;7.38;;;20.40;99.90;;;;;;4988906;28;20092;-80
2023/09/26 11:26:56;;;;;;;7.05;6.32;;;20.50;99.90;;;;;;4984659;28;20153;-80
2023/09/26 11:29:23;;;;;;;10.45;8.02;;;20.30;99.90;;;;;;4986719;28;20101;-79
2023/09/26 11:31:51;;;;;;;8.90;7.45;;;20.30;99.90;;;;;;4969279;28;20034;-82
2023/09/26 11:34:19;;;;;;;8.52;7.72;;;20.70;99.90;;;;;;4969593;28;20464;-80
2023/09/26 11:36:44;;;;;;;8.40;7.60;;;20.30;99.90;;;;;;4987524;28;20054;-80
2023/09/26 11:39:16;;;;;;;7.97;7.18;;;20.30;99.90;;;;;;4970626;28;20473;-80
2023/09/26 11:41:41;;;;;;;9.73;8.30;;;20.40;99.90;;;;;;4970118;28;20034;-80
2023/09/26 11:44:11;;;;;;;8.63;7.82;;;20.40;99.90;;;;;;4986947;28;20116;-80
2023/09/26 11:46:56;;;;;;;9.40;8.10;;;20.40;99.90;;;;;;4970530;28;20050;-79
2023/09/26 11:49:24;;;;;;;8.63;7.82;;;20.30;99.90;;;;;;4968997;28;20117;-79
2023/09/26 11:51:51;;;;;;;8.48;7.70;;;20.40;99.90;;;;;;4954334;28;20201;-80
2023/09/26 11:54:17;;;;;;;9.13;8.00;;;20.80;99.90;;;;;;4988417;28;20038;-80
2023/09/26 11:56:44;;;;;;;10.43;7.60;;;20.40;99.90;;;;;;4970147;28;20035;-79
2023/09/26 11:59:10;;;;;;;10.02;7.57;;;20.80;99.90;;;;;;4988686;28;20038;-79
2023/09/26 12:01:36;;;;;;;9.95;8.00;;;20.50;99.90;;;;;;4971205;28;20039;-81
2023/09/26 12:04:06;;;;;;;9.02;7.45;;;20.50;99.90;;;;;;4988573;28;20105;-81
2023/09/26 12:06:33;;;;;;;8.40;7.55;;;20.60;99.90;;;;;;4988680;28;20125;-80
2023/09/26 12:08:59;;;;;;;8.27;7.13;;;20.70;99.90;;;;;;4988404;28;20589;-80
2023/09/26 12:11:25;;;;;;;8.00;7.22;;;21.10;99.90;;;;;;4986995;28;20039;-81
2023/09/26 12:13:50;;;;;;;8.02;7.30;;;20.80;99.90;;;;;;4987833;28;20057;-81
2023/09/26 12:16:16;;;;;;;10.35;7.20;;;20.90;99.90;;;;;;4987552;28;20046;-80
2023/09/26 12:18:41;;;;;;;10.60;6.70;;;20.90;99.90;;;;;;4970966;28;20057;-80
2023/09/26 12:21:07;;;;;;;6.93;6.20;;;20.80;99.90;;;;;;4954203;28;20510;-80
2023/09/26 12:23:33;;;;;;;8.02;6.57;;;20.90;99.90;;;;;;4954283;28;20409;-81
2023/09/26 12:25:59;;;;;;;7.53;6.70;;;20.90;99.90;;;;;;4987806;28;20061;-80
2023/09/26 12:28:25;;;;;;;7.53;6.75;;;21.10;99.90;;;;;;4987512;28;20038;-80
2023/09/26 12:30:52;;;;;;;10.25;6.90;;;21.40;99.90;;;;;;4987603;28;20042;-79
2023/09/26 12:33:18;;;;;;;7.72;6.63;;;21.00;99.90;;;;;;4986767;28;20128;-78
2023/09/26 12:35:43;;;;;;;7.85;6.20;;;21.00;99.90;;;;;;4990285;28;20421;-80